EmailTwitter


Observations de surface / Québec / EGXC

Régions: Québec | Canada | États-Unis | Europe | France | UK | Ailleurs
Station
Affichage
Infos & localisation pour EGXC | Aide pour décoder les METARs

Observations prises le 2017-09-21 à 09H50 UTC à CONINGSBY RAF, UK (EGXC)

Etat du ciel: partiellement nuageux.

Température: 16.0 Celsius

Point de rosée: 13.0 Celsius

Humidité relative: 82%

Vents: Sud à 26 km/h ou 14 noeuds.

Pression au niveau moyen de la mer: 101.20 kilopascals.

Visibilité horizontale: 6.21 milles terrestres ou 9.94 kilomètres.

Hauteur du plafond: 1158 mètres ( 3800 pieds ).

Observation METAR:

EGXC 210950Z 18014KT 9999 FEW017 BKN038 BKN048 16/13 Q1012 BLU TEMPO SCT018 WHT=